This is the latest recevied weather packets stored in our database for station/object N4WFF. If no packets are shown the sender has not sent any weather packets the latest 10 day(s).
| Time | Temp. | Humidity | Pressure | Rain* | Wind** | Luminosity | Snow |
|---|---|---|---|---|---|---|---|
| 1777749056 | 21.11° C | 61% | 1013.5 hPa | 0 mm | - | 1037 W/m² | - |
| 1777748755 | 21.11° C | 61% | 1013.6 hPa | 0 mm | - | 996 W/m² | - |
| 1777748455 | 21.11° C | 63% | 1013.6 hPa | 0 mm | - | 1090 W/m² | - |
| 1777748156 | 20.56° C | 66% | 1013.7 hPa | 0 mm | - | 1091 W/m² | - |
| 1777747856 | 20.56° C | 62% | 1013.6 hPa | 0 mm | - | 241 W/m² | - |
| 1777747556 | 20.56° C | 61% | 1013.6 hPa | 0 mm | - | 608 W/m² | - |
| 1777747255 | 20.56° C | 62% | 1013.6 hPa | 0 mm | - | 616 W/m² | - |
| 1777746955 | 20.56° C | 64% | 1013.6 hPa | 0 mm | - | 1036 W/m² | - |
| 1777746656 | 20.56° C | 62% | 1013.7 hPa | 0 mm | - | 321 W/m² | - |
| 1777746355 | 20.56° C | 66% | 1013.7 hPa | 0 mm | - | 753 W/m² | - |
| 1777746055 | 20.56° C | 66% | 1013.6 hPa | 0 mm | - | 400 W/m² | - |
| 1777745755 | 20.56° C | 64% | 1013.7 hPa | 0 mm | - | 559 W/m² | - |
| 1777745455 | 20.56° C | 68% | 1013.7 hPa | 0 mm | - | 1160 W/m² | - |
| 1777745155 | 20.56° C | 69% | 1013.8 hPa | 0 mm | - | 1152 W/m² | - |
| 1777744855 | 20.56° C | 66% | 1013.7 hPa | 0 mm | - | 240 W/m² | - |
| 1777744555 | 20.56° C | 68% | 1013.7 hPa | 0 mm | - | 652 W/m² | - |
| 1777744255 | 20.56° C | 67% | 1013.8 hPa | 0 mm | - | 368 W/m² | - |
| 1777743956 | 20.56° C | 69% | 1013.8 hPa | 0 mm | - | 1168 W/m² | - |
| 1777743656 | 20° C | 70% | 1013.8 hPa | 0 mm | - | 1091 W/m² | - |
| 1777743355 | 20° C | 69% | 1013.8 hPa | 0 mm | - | 285 W/m² | - |
| 1777743055 | 20° C | 70% | 1013.9 hPa | 0 mm | - | 1135 W/m² | - |
| 1777742756 | 19.44° C | 70% | 1013.8 hPa | 0 mm | - | 1005 W/m² | - |
| 1777742460 | 19.44° C | 72% | 1013.8 hPa | 0 mm | - | 1100 W/m² | - |
| 1777742156 | 19.44° C | 75% | 1013.9 hPa | 0 mm | - | 1108 W/m² | - |
| 1777741856 | 19.44° C | 74% | 1013.9 hPa | 0 mm | - | 1108 W/m² | - |
* Rain latest hour (hover to see other rain measurements)
** Current wind speed in m/s (hover to see current wind gust speed)